Airfield :
LOGIN :

Register | Disclaimer

   EN    FR    IT 

 










Legend :    VFR   Marginal VFR   IFR   Intensive IFR   Very Intensive IFR
Visi :
Ceiling :
>= 8 km
>= 3000ft
5 to 8 km
1000 to 3000 ft
1500m to 5 km
500 to 1000 ft
800 to 1500m
200 to 500 ft
< 800m
< 200 ft
Symbols :   Thunderstorms  Fog  Heavy snow  Heavy precipitations  Wind > 20 kt
SIGMETs :     Misc.  Thunderstorms  Icing  Turbulence  Mountain Waves  Volcanic Ashes






- Airport Elevation : 100 ft


EBDT - Schaffen

CURRENT METAR :
  • 221655Z VRB02KT 9999 FEW030 BKN130 BKN220 12/10 Q1024 BLU BLU

EXPIRED METARs :
  • 221625Z VRB01KT 9999 FEW030 SCT140 BKN220 13/09 Q1024 BLU BLU
  • 221555Z VRB02KT 9999 FEW030 SCT140 BKN220 14/09 Q1024 BLU BLU
  • 221525Z VRB02KT 9999 SCT030 SCT230 15/09 Q1023 BLU BLU
  • 221455Z VRB02KT 9999 FEW025 SCT030 BKN220 15/09 Q1024 BLU BLU
  • 221433Z 26004KT 9999 FEW022 SCT027 BKN220 15/09 Q1024 BLU BLU

TAF TAF EBDT
Valid from the 22 at 13:00 until the 22 at 22:00 UTC


221148Z 2213/2222 23006G10KT 9999 SCT015 BKN025
BECMG 2213/2214 24004KT SCT027 BKN037
BECMG 2215/2217 SCT020
BECMG 2218/2219 09004KT FEW014 OVC080



MET'MAP, your aeronautical weather chart ! - Copyright ORBIFLY December 2007 - Disclaimer

ORBIFLY MET'MAP TEAM :

Programming & Development : Alexandra Zaïnal
Concept & Development : Baudouin d'Aumeries
Co-Development & Prog : Marc-Olivier Méhu
Technical & hardware support : Manuel Goepfert

Contact : metmap@orbifly.com




SOURCES & CREDITS :

   NOAA